Sebewaing, Michigan
Current Conditions -  °F | °C
As of 2:15 AM on Wednesday 22 Oct 2014 (Local Time) from KCFS Reporting Station
Overcast Overcast  
Wind Chill: 43°   Ceiling: 2200
Heat Index: 43°   Visibility: 10mi
Dew Point: 38°   Wind: 0mph
Humidity: 84%   Direction: NA
Pressure: 30.25"   Gusts: NA
Location:  43.73°N, 83.45°W
Report Text: KCFS 220615Z AUTO 00000KT 10SM OVC022 06/04 A3025 RMK AO2 T00610036
Loading
Personal Weather Stations






























Interactive Weather Map New forecast layout! Learn more

10-Day Weather Forecast

Advertisements
Track Severe Weather on mobile